Главная страница
METAR-TAF:

METAR-TAF

Аэропорты :

Elkins-Randolph County Airport (Jennings Randolph Field)

Elkins, Западная Виргиния, США

широта: 38-53-07N, долгота: 079-51-10W, высота над уровнем моря: 605 м

Текущие метеонаблюдения

Эта сводка был подготовлена 56 минут назад, в 06:51 UTC
Ветер 5 Узел от юго-восточный
Температура -1°C
Влажность 43%
Давление 1022 hPa
Видимость: 16.1 км
ясное небо

METAR: KEKN 170651Z AUTO 14005KT 10SM CLR M01/M12 A3019 RMK AO2 SLP242 T10111122 $

Время: 02:47 (07:47 UTC)

Прогноз

Эта сводка был подготовлена 2 часа и 22 минут назад, в 05:25 UTC
Прогноз действительный с 17-го 06 UTC до 18-го 06 UTC
Ветер 6 Узел от юго-восточный
Видимость: 10 км
ясное небо
С 18-го 0500 UTC
Ветер Узел от северный
Видимость: 10 км
Рассеянная облачность на высоте 20000 фута

TAF: KEKN 170525Z 1706/1806 13006KT P6SM SKC FM180500 00000KT P6SM BKN200

Метеонаблюдения и прогнозы для более 4000 аэропортов (сводки METAR и TAF).

Имеющиеся станции представлены на карте желтыми и красными точками.

Чтобы увидеть название станции, наведите на нее мышь.

Затем щелкните, чтобы увидеть метеонаблюдения и метеопрогнозы.

Управление картой: чтобы увеличить масштаб, щелкните зеленые кнопки с черным крестиком; чтобы уменьшить масштаб, щелкните зеленую кнопку с тире; для просмотра соседних карт щелкайте зеленые стрелки.


METAR-TAF: